AAL765 KLAS-KLGA
Flight info
| Callsign | AAL765 |
|---|---|
| Flight time | 4h 8m |
| Altitude | 31000 |
| Route | GIDGT3 TUKRR DVV/N0451F330 J60 JOT J146 ETG MIP4 |
| Aircraft | A321/M-SDE3FGHIRWY/LB1 |
Departure
| Time | 2026-05-07 15:57 |
|---|---|
| Airport | Harry Reid International Airport (KLAS) |
Arrival
| Time | 2026-05-07 20:06 |
|---|---|
| Airport | LaGuardia Airport (KLGA) |
| Time | Latitude | Longitude | Altitude | Speed | Heading |
|---|---|---|---|---|---|
| 2026-05-07 15:37 | 36.07995 | -115.13574 | 2188 ft | 0 kts | 42° |
| 2026-05-07 15:48 | 36.07981 | -115.13590 | 2191 ft | 4 kts | 42° |
| 2026-05-07 15:48 | 36.07961 | -115.13613 | 2192 ft | 4 kts | 42° |
| 2026-05-07 15:48 | 36.07945 | -115.13630 | 2191 ft | 4 kts | 60° |
| 2026-05-07 15:49 | 36.07943 | -115.13652 | 2189 ft | 4 kts | 130° |
| 2026-05-07 15:49 | 36.07960 | -115.13673 | 2189 ft | 2 kts | 135° |
| 2026-05-07 15:49 | 36.07961 | -115.13674 | 2189 ft | 0 kts | 135° |
| 2026-05-07 15:51 | 36.07958 | -115.13670 | 2192 ft | 2 kts | 135° |
| 2026-05-07 15:52 | 36.07932 | -115.13638 | 2189 ft | 8 kts | 135° |
| 2026-05-07 15:52 | 36.07883 | -115.13578 | 2188 ft | 10 kts | 135° |
| 2026-05-07 15:52 | 36.07842 | -115.13525 | 2191 ft | 7 kts | 129° |
| 2026-05-07 15:52 | 36.07828 | -115.13471 | 2192 ft | 8 kts | 93° |
| 2026-05-07 15:53 | 36.07828 | -115.13378 | 2191 ft | 14 kts | 90° |
| 2026-05-07 15:53 | 36.07828 | -115.13253 | 2191 ft | 14 kts | 90° |
| 2026-05-07 15:53 | 36.07828 | -115.13141 | 2192 ft | 12 kts | 90° |
| 2026-05-07 15:53 | 36.07828 | -115.13027 | 2192 ft | 15 kts | 90° |
| 2026-05-07 15:54 | 36.07828 | -115.12891 | 2188 ft | 16 kts | 90° |
| 2026-05-07 15:54 | 36.07828 | -115.12764 | 2191 ft | 14 kts | 90° |
| 2026-05-07 15:54 | 36.07829 | -115.12652 | 2189 ft | 12 kts | 90° |
| 2026-05-07 15:54 | 36.07829 | -115.12538 | 2188 ft | 16 kts | 90° |
| 2026-05-07 15:55 | 36.07829 | -115.12386 | 2188 ft | 18 kts | 90° |
| 2026-05-07 15:55 | 36.07816 | -115.12254 | 2189 ft | 13 kts | 115° |
| 2026-05-07 15:55 | 36.07776 | -115.12188 | 2190 ft | 5 kts | 129° |
| 2026-05-07 15:55 | 36.07758 | -115.12160 | 2188 ft | 5 kts | 129° |
| 2026-05-07 15:56 | 36.07713 | -115.12126 | 2190 ft | 10 kts | 168° |
| 2026-05-07 15:56 | 36.07650 | -115.12152 | 2191 ft | 9 kts | 237° |
| 2026-05-07 15:56 | 36.07643 | -115.12216 | 2189 ft | 8 kts | 268° |
| 2026-05-07 15:56 | 36.07642 | -115.12414 | 2188 ft | 54 kts | 270° |
| 2026-05-07 15:57 | 36.07641 | -115.13154 | 2194 ft | 115 kts | 270° |
| 2026-05-07 15:57 | 36.07641 | -115.14365 | 2192 ft | 164 kts | 270° |
| 2026-05-07 15:57 | 36.07641 | -115.15930 | 2275 ft | 196 kts | 269° |
| 2026-05-07 15:57 | 36.07630 | -115.17600 | 2985 ft | 193 kts | 269° |
| 2026-05-07 15:58 | 36.07625 | -115.19272 | 3630 ft | 194 kts | 270° |
| 2026-05-07 15:58 | 36.07629 | -115.20942 | 4033 ft | 197 kts | 271° |
| 2026-05-07 15:58 | 36.07633 | -115.22673 | 4162 ft | 209 kts | 271° |
| 2026-05-07 15:58 | 36.07637 | -115.24520 | 4290 ft | 221 kts | 271° |
| 2026-05-07 15:59 | 36.07753 | -115.26454 | 4461 ft | 230 kts | 289° |
| 2026-05-07 15:59 | 36.08627 | -115.28097 | 4747 ft | 234 kts | 323° |
| 2026-05-07 15:59 | 36.10154 | -115.28867 | 4900 ft | 250 kts | 356° |
| 2026-05-07 15:59 | 36.11966 | -115.29071 | 5133 ft | 264 kts | 351° |
| 2026-05-07 16:00 | 36.13760 | -115.29287 | 5872 ft | 256 kts | 5° |
| 2026-05-07 16:00 | 36.15439 | -115.28717 | 6366 ft | 259 kts | 30° |
| 2026-05-07 16:00 | 36.16775 | -115.27143 | 6545 ft | 274 kts | 59° |
| 2026-05-07 16:00 | 36.17618 | -115.24996 | 6955 ft | 280 kts | 69° |
| 2026-05-07 16:01 | 36.18297 | -115.22734 | 7464 ft | 282 kts | 69° |
| 2026-05-07 16:01 | 36.19007 | -115.20461 | 7995 ft | 284 kts | 68° |
| 2026-05-07 16:01 | 36.19531 | -115.18094 | 8517 ft | 287 kts | 82° |
| 2026-05-07 16:01 | 36.19619 | -115.15614 | 9049 ft | 289 kts | 88° |
| 2026-05-07 16:02 | 36.19624 | -115.13139 | 9574 ft | 292 kts | 88° |
| 2026-05-07 16:02 | 36.19627 | -115.10606 | 10098 ft | 294 kts | 88° |
| 2026-05-07 16:02 | 36.19628 | -115.08042 | 10228 ft | 309 kts | 88° |
| 2026-05-07 16:02 | 36.19629 | -115.05318 | 10351 ft | 324 kts | 88° |
| 2026-05-07 16:03 | 36.19630 | -115.02455 | 10473 ft | 339 kts | 88° |
| 2026-05-07 16:03 | 36.19631 | -114.99482 | 10596 ft | 354 kts | 88° |
| 2026-05-07 16:03 | 36.19632 | -114.96368 | 10725 ft | 367 kts | 88° |
| 2026-05-07 16:03 | 36.19631 | -114.93165 | 11019 ft | 374 kts | 88° |
| 2026-05-07 16:04 | 36.19627 | -114.89935 | 11432 ft | 376 kts | 88° |
| 2026-05-07 16:04 | 36.19622 | -114.86679 | 11876 ft | 378 kts | 88° |
| 2026-05-07 16:04 | 36.19617 | -114.83457 | 12307 ft | 379 kts | 88° |
| 2026-05-07 16:04 | 36.19610 | -114.80175 | 12747 ft | 381 kts | 88° |
| 2026-05-07 16:05 | 36.19601 | -114.76881 | 13180 ft | 382 kts | 88° |
| 2026-05-07 16:05 | 36.19591 | -114.73623 | 13604 ft | 384 kts | 88° |
| 2026-05-07 16:05 | 36.19579 | -114.70304 | 14010 ft | 385 kts | 88° |
| 2026-05-07 16:05 | 36.19568 | -114.66971 | 14356 ft | 387 kts | 88° |
| 2026-05-07 16:06 | 36.19563 | -114.63630 | 14702 ft | 389 kts | 88° |
| 2026-05-07 16:06 | 36.19560 | -114.60273 | 15047 ft | 391 kts | 88° |
| 2026-05-07 16:06 | 36.19555 | -114.56892 | 15372 ft | 393 kts | 88° |
| 2026-05-07 16:06 | 36.19545 | -114.53543 | 15672 ft | 394 kts | 88° |
| 2026-05-07 16:07 | 36.19535 | -114.50131 | 15983 ft | 396 kts | 88° |
| 2026-05-07 16:07 | 36.19523 | -114.46712 | 16267 ft | 398 kts | 88° |
| 2026-05-07 16:07 | 36.19511 | -114.43263 | 16572 ft | 400 kts | 88° |
| 2026-05-07 16:07 | 36.19499 | -114.39807 | 16867 ft | 402 kts | 88° |
| 2026-05-07 16:08 | 36.19484 | -114.36337 | 17159 ft | 404 kts | 88° |
| 2026-05-07 16:08 | 36.19466 | -114.32855 | 17454 ft | 405 kts | 88° |
| 2026-05-07 16:08 | 36.19448 | -114.29395 | 17746 ft | 407 kts | 88° |
| 2026-05-07 16:08 | 36.19431 | -114.25870 | 18044 ft | 409 kts | 87° |
| 2026-05-07 16:09 | 36.19620 | -114.22375 | 18321 ft | 407 kts | 79° |
| 2026-05-07 16:09 | 36.20048 | -114.18889 | 18587 ft | 409 kts | 78° |
| 2026-05-07 16:09 | 36.20469 | -114.15392 | 18846 ft | 411 kts | 79° |
| 2026-05-07 16:09 | 36.20881 | -114.11928 | 19110 ft | 412 kts | 79° |
| 2026-05-07 16:10 | 36.21299 | -114.08406 | 19349 ft | 415 kts | 79° |
| 2026-05-07 16:10 | 36.21718 | -114.04877 | 19634 ft | 416 kts | 79° |
| 2026-05-07 16:10 | 36.22141 | -114.01319 | 19910 ft | 418 kts | 79° |
| 2026-05-07 16:10 | 36.22565 | -113.97746 | 20172 ft | 420 kts | 79° |
| 2026-05-07 16:11 | 36.22988 | -113.94150 | 20444 ft | 421 kts | 79° |
| 2026-05-07 16:11 | 36.23408 | -113.90556 | 20719 ft | 423 kts | 79° |
| 2026-05-07 16:11 | 36.23830 | -113.86933 | 20989 ft | 425 kts | 79° |
| 2026-05-07 16:11 | 36.24251 | -113.83339 | 21253 ft | 427 kts | 79° |
| 2026-05-07 16:12 | 36.24678 | -113.79690 | 21509 ft | 428 kts | 79° |
| 2026-05-07 16:12 | 36.25107 | -113.76027 | 21758 ft | 431 kts | 79° |
| 2026-05-07 16:12 | 36.25538 | -113.72338 | 22003 ft | 432 kts | 79° |
| 2026-05-07 16:12 | 36.25966 | -113.68635 | 22279 ft | 434 kts | 79° |
| 2026-05-07 16:13 | 36.26389 | -113.64975 | 22533 ft | 436 kts | 79° |
| 2026-05-07 16:13 | 36.26818 | -113.61246 | 22787 ft | 437 kts | 79° |
| 2026-05-07 16:13 | 36.27247 | -113.57498 | 23037 ft | 439 kts | 79° |
| 2026-05-07 16:13 | 36.27675 | -113.53755 | 23275 ft | 441 kts | 79° |
| 2026-05-07 16:14 | 36.28110 | -113.49961 | 23526 ft | 443 kts | 79° |
| 2026-05-07 16:14 | 36.28539 | -113.46221 | 23748 ft | 444 kts | 79° |
| 2026-05-07 16:14 | 36.28973 | -113.42424 | 23971 ft | 446 kts | 79° |
| 2026-05-07 16:14 | 36.29404 | -113.38618 | 24195 ft | 447 kts | 79° |
| 2026-05-07 16:15 | 36.29834 | -113.34788 | 24439 ft | 447 kts | 79° |
| 2026-05-07 16:15 | 36.30264 | -113.30954 | 24653 ft | 449 kts | 79° |
| 2026-05-07 16:15 | 36.30694 | -113.27109 | 24870 ft | 450 kts | 79° |
| 2026-05-07 16:15 | 36.31227 | -113.23349 | 25065 ft | 449 kts | 73° |
| 2026-05-07 16:16 | 36.32206 | -113.19676 | 25250 ft | 447 kts | 64° |
| 2026-05-07 16:16 | 36.33464 | -113.16136 | 25451 ft | 447 kts | 64° |
| 2026-05-07 16:16 | 36.34720 | -113.12602 | 25661 ft | 448 kts | 64° |
| 2026-05-07 16:16 | 36.35977 | -113.09039 | 25849 ft | 449 kts | 64° |
| 2026-05-07 16:17 | 36.37219 | -113.05503 | 26023 ft | 450 kts | 64° |
| 2026-05-07 16:17 | 36.38468 | -113.01933 | 26186 ft | 451 kts | 64° |
| 2026-05-07 16:17 | 36.39715 | -112.98365 | 26351 ft | 452 kts | 64° |
| 2026-05-07 16:17 | 36.40973 | -112.94778 | 26516 ft | 453 kts | 64° |
| 2026-05-07 16:18 | 36.42219 | -112.91228 | 26719 ft | 452 kts | 64° |
| 2026-05-07 16:18 | 36.43476 | -112.87636 | 26975 ft | 451 kts | 64° |
| 2026-05-07 16:18 | 36.44724 | -112.84065 | 27202 ft | 450 kts | 64° |
| 2026-05-07 16:18 | 36.45971 | -112.80495 | 27419 ft | 450 kts | 64° |
| 2026-05-07 16:19 | 36.47214 | -112.76932 | 27633 ft | 449 kts | 64° |
| 2026-05-07 16:19 | 36.48451 | -112.73375 | 27848 ft | 448 kts | 64° |
| 2026-05-07 16:19 | 36.49686 | -112.69826 | 28070 ft | 447 kts | 64° |
| 2026-05-07 16:19 | 36.50908 | -112.66317 | 28284 ft | 447 kts | 64° |
| 2026-05-07 16:20 | 36.52141 | -112.62768 | 28501 ft | 446 kts | 64° |
| 2026-05-07 16:20 | 36.53369 | -112.59227 | 28705 ft | 446 kts | 64° |
| 2026-05-07 16:20 | 36.54595 | -112.55686 | 28909 ft | 445 kts | 64° |
| 2026-05-07 16:20 | 36.55814 | -112.52152 | 29111 ft | 444 kts | 64° |
| 2026-05-07 16:21 | 36.57022 | -112.48655 | 29318 ft | 444 kts | 64° |
| 2026-05-07 16:21 | 36.58238 | -112.45122 | 29523 ft | 443 kts | 64° |
| 2026-05-07 16:21 | 36.59452 | -112.41591 | 29730 ft | 442 kts | 64° |
| 2026-05-07 16:21 | 36.60663 | -112.38071 | 29922 ft | 442 kts | 64° |
| 2026-05-07 16:22 | 36.61856 | -112.34599 | 30109 ft | 441 kts | 64° |
| 2026-05-07 16:22 | 36.63064 | -112.31080 | 30279 ft | 441 kts | 63° |
| 2026-05-07 16:22 | 36.64269 | -112.27578 | 30451 ft | 440 kts | 63° |
| 2026-05-07 16:22 | 36.65474 | -112.24074 | 30626 ft | 439 kts | 63° |
| 2026-05-07 16:23 | 36.66675 | -112.20571 | 30799 ft | 438 kts | 63° |
| 2026-05-07 16:23 | 36.67866 | -112.17083 | 30977 ft | 437 kts | 63° |
| 2026-05-07 16:23 | 36.69040 | -112.13634 | 31071 ft | 437 kts | 63° |
| 2026-05-07 16:24 | 36.71411 | -112.06670 | 31092 ft | 435 kts | 63° |
| 2026-05-07 16:24 | 36.73782 | -111.99713 | 31092 ft | 435 kts | 63° |
| 2026-05-07 16:25 | 36.76131 | -111.92794 | 31099 ft | 436 kts | 63° |
| 2026-05-07 16:25 | 36.78491 | -111.85823 | 31097 ft | 435 kts | 63° |
| 2026-05-07 16:26 | 36.80842 | -111.78856 | 31130 ft | 435 kts | 63° |
| 2026-05-07 16:26 | 36.83181 | -111.71930 | 31168 ft | 435 kts | 63° |
| 2026-05-07 16:27 | 36.85609 | -111.65007 | 31194 ft | 432 kts | 57° |
| 2026-05-07 16:27 | 36.88689 | -111.58565 | 31230 ft | 431 kts | 55° |
| 2026-05-07 16:28 | 36.91767 | -111.52159 | 31244 ft | 431 kts | 55° |
| 2026-05-07 16:28 | 36.94838 | -111.45747 | 31253 ft | 431 kts | 55° |
| 2026-05-07 16:29 | 36.97917 | -111.39297 | 31251 ft | 431 kts | 55° |
| 2026-05-07 16:29 | 37.00997 | -111.32835 | 31237 ft | 431 kts | 55° |
| 2026-05-07 16:30 | 37.04060 | -111.26417 | 31205 ft | 431 kts | 55° |
| 2026-05-07 16:30 | 37.06620 | -111.21044 | 31187 ft | 431 kts | 55° |
| 2026-05-07 16:31 | 37.10188 | -111.13527 | 31154 ft | 431 kts | 55° |
| 2026-05-07 16:31 | 37.12733 | -111.08139 | 31132 ft | 431 kts | 55° |
| 2026-05-07 16:32 | 37.15790 | -111.01666 | 31121 ft | 431 kts | 55° |
| 2026-05-07 16:32 | 37.18850 | -110.95188 | 31121 ft | 430 kts | 55° |
| 2026-05-07 16:33 | 37.21879 | -110.88754 | 31124 ft | 431 kts | 54° |
| 2026-05-07 16:33 | 37.24930 | -110.82262 | 31127 ft | 431 kts | 54° |
| 2026-05-07 16:34 | 37.27960 | -110.75808 | 31126 ft | 431 kts | 54° |
| 2026-05-07 16:34 | 37.31003 | -110.69315 | 31134 ft | 430 kts | 54° |
| 2026-05-07 16:35 | 37.34019 | -110.62853 | 31127 ft | 430 kts | 54° |
| 2026-05-07 16:35 | 37.37046 | -110.56350 | 31132 ft | 430 kts | 54° |
| 2026-05-07 16:36 | 37.40057 | -110.49885 | 31133 ft | 430 kts | 54° |
| 2026-05-07 16:36 | 37.43081 | -110.43389 | 31137 ft | 430 kts | 54° |
| 2026-05-07 16:37 | 37.46095 | -110.36875 | 31121 ft | 430 kts | 54° |
| 2026-05-07 16:37 | 37.49093 | -110.30395 | 31126 ft | 430 kts | 54° |
| 2026-05-07 16:38 | 37.52105 | -110.23890 | 31122 ft | 430 kts | 54° |
| 2026-05-07 16:38 | 37.55100 | -110.17396 | 31130 ft | 430 kts | 54° |
| 2026-05-07 16:39 | 37.58104 | -110.10872 | 31133 ft | 430 kts | 54° |
| 2026-05-07 16:39 | 37.61099 | -110.04335 | 31140 ft | 430 kts | 54° |
| 2026-05-07 16:40 | 37.64071 | -109.97844 | 31148 ft | 430 kts | 54° |
| 2026-05-07 16:40 | 37.67067 | -109.91293 | 31150 ft | 430 kts | 54° |
| 2026-05-07 16:41 | 37.70047 | -109.84750 | 31170 ft | 430 kts | 54° |
| 2026-05-07 16:41 | 37.73009 | -109.78242 | 31196 ft | 430 kts | 54° |
| 2026-05-07 16:42 | 37.75998 | -109.71677 | 31207 ft | 429 kts | 54° |
| 2026-05-07 16:42 | 37.78951 | -109.65171 | 31221 ft | 429 kts | 54° |
| 2026-05-07 16:43 | 37.81922 | -109.58609 | 31221 ft | 429 kts | 54° |
| 2026-05-07 16:43 | 37.84870 | -109.52083 | 31222 ft | 429 kts | 54° |
| 2026-05-07 16:44 | 37.87826 | -109.45527 | 31207 ft | 428 kts | 54° |
| 2026-05-07 16:44 | 37.90778 | -109.38964 | 31195 ft | 428 kts | 54° |
| 2026-05-07 16:45 | 37.93704 | -109.32433 | 31188 ft | 428 kts | 54° |
| 2026-05-07 16:45 | 37.96645 | -109.25863 | 31193 ft | 428 kts | 54° |
| 2026-05-07 16:46 | 37.99576 | -109.19297 | 31195 ft | 428 kts | 54° |
| 2026-05-07 16:46 | 38.02486 | -109.12775 | 31191 ft | 427 kts | 54° |
| 2026-05-07 16:47 | 38.05415 | -109.06204 | 31192 ft | 427 kts | 54° |
| 2026-05-07 16:47 | 38.08338 | -108.99629 | 31208 ft | 427 kts | 54° |
| 2026-05-07 16:48 | 38.11236 | -108.93098 | 31199 ft | 427 kts | 54° |
| 2026-05-07 16:48 | 38.14153 | -108.86521 | 31202 ft | 427 kts | 54° |
| 2026-05-07 16:49 | 38.17069 | -108.79924 | 31203 ft | 428 kts | 54° |
| 2026-05-07 16:49 | 38.19966 | -108.73349 | 31209 ft | 428 kts | 54° |
| 2026-05-07 16:50 | 38.22871 | -108.66731 | 31194 ft | 429 kts | 54° |
| 2026-05-07 16:50 | 38.25761 | -108.60129 | 31201 ft | 429 kts | 54° |
| 2026-05-07 16:51 | 38.28678 | -108.53470 | 31193 ft | 430 kts | 54° |
| 2026-05-07 16:51 | 38.31573 | -108.46852 | 31193 ft | 430 kts | 54° |
| 2026-05-07 16:52 | 38.34493 | -108.40171 | 30770 ft | 431 kts | 56° |
| 2026-05-07 16:52 | 38.35956 | -108.36816 | 30954 ft | 432 kts | 56° |
| 2026-05-07 16:52 | 38.37410 | -108.33469 | 31139 ft | 432 kts | 56° |
| 2026-05-07 16:53 | 38.40335 | -108.26744 | 31207 ft | 441 kts | 56° |
| 2026-05-07 16:53 | 38.43342 | -108.19809 | 31237 ft | 451 kts | 56° |
| 2026-05-07 16:54 | 38.46376 | -108.12787 | 31260 ft | 456 kts | 56° |
| 2026-05-07 16:54 | 38.49448 | -108.05659 | 31282 ft | 457 kts | 57° |
| 2026-05-07 16:55 | 38.52498 | -107.98571 | 31295 ft | 457 kts | 56° |
| 2026-05-07 16:55 | 38.55563 | -107.91430 | 31297 ft | 458 kts | 57° |
| 2026-05-07 16:56 | 38.58610 | -107.84312 | 31297 ft | 458 kts | 57° |
| 2026-05-07 16:56 | 38.63187 | -107.73614 | 31272 ft | 458 kts | 57° |
| 2026-05-07 16:57 | 38.66248 | -107.66444 | 31251 ft | 459 kts | 57° |
| 2026-05-07 16:57 | 38.69304 | -107.59256 | 31230 ft | 459 kts | 57° |
| 2026-05-07 16:58 | 38.72337 | -107.52101 | 31220 ft | 460 kts | 57° |
| 2026-05-07 16:58 | 38.75386 | -107.44891 | 31217 ft | 460 kts | 57° |
| 2026-05-07 16:59 | 38.78420 | -107.37710 | 31218 ft | 460 kts | 57° |
| 2026-05-07 16:59 | 38.81466 | -107.30476 | 31223 ft | 461 kts | 57° |
| 2026-05-07 17:00 | 38.84494 | -107.23268 | 31213 ft | 461 kts | 57° |
| 2026-05-07 17:00 | 38.87536 | -107.16006 | 31222 ft | 461 kts | 57° |
| 2026-05-07 17:01 | 38.90577 | -107.08735 | 31227 ft | 461 kts | 57° |
| 2026-05-07 17:01 | 38.93600 | -107.01505 | 31232 ft | 462 kts | 57° |
| 2026-05-07 17:02 | 38.96635 | -106.94217 | 31235 ft | 462 kts | 57° |
| 2026-05-07 17:02 | 38.99644 | -106.86965 | 31238 ft | 462 kts | 57° |
| 2026-05-07 17:03 | 39.02674 | -106.79657 | 31240 ft | 463 kts | 57° |
| 2026-05-07 17:03 | 39.05708 | -106.72327 | 31245 ft | 463 kts | 57° |
| 2026-05-07 17:04 | 39.08719 | -106.65025 | 31242 ft | 464 kts | 57° |
| 2026-05-07 17:04 | 39.11721 | -106.57706 | 31267 ft | 463 kts | 57° |
| 2026-05-07 17:05 | 39.14732 | -106.50387 | 31294 ft | 463 kts | 57° |
| 2026-05-07 17:05 | 39.17750 | -106.43047 | 31320 ft | 464 kts | 57° |
| 2026-05-07 17:06 | 39.20763 | -106.35661 | 31329 ft | 464 kts | 57° |
| 2026-05-07 17:06 | 39.23764 | -106.28289 | 31322 ft | 464 kts | 57° |
| 2026-05-07 17:07 | 39.26745 | -106.20956 | 31316 ft | 464 kts | 57° |
| 2026-05-07 17:07 | 39.29750 | -106.13550 | 31278 ft | 465 kts | 57° |
| 2026-05-07 17:08 | 39.32729 | -106.06185 | 31243 ft | 465 kts | 57° |
| 2026-05-07 17:08 | 39.35742 | -105.98739 | 31219 ft | 466 kts | 57° |
| 2026-05-07 17:09 | 39.38723 | -105.91346 | 31181 ft | 466 kts | 57° |
| 2026-05-07 17:09 | 39.41718 | -105.83883 | 31173 ft | 467 kts | 57° |
| 2026-05-07 17:10 | 39.44713 | -105.76405 | 31161 ft | 468 kts | 57° |
| 2026-05-07 17:10 | 39.47689 | -105.68957 | 31160 ft | 469 kts | 57° |
| 2026-05-07 17:11 | 39.50684 | -105.61443 | 31150 ft | 470 kts | 57° |
| 2026-05-07 17:11 | 39.53669 | -105.53932 | 31137 ft | 471 kts | 57° |
| 2026-05-07 17:12 | 39.56676 | -105.46360 | 31122 ft | 473 kts | 57° |
| 2026-05-07 17:12 | 39.59688 | -105.38740 | 31103 ft | 475 kts | 57° |
| 2026-05-07 17:13 | 39.62690 | -105.31142 | 31086 ft | 476 kts | 57° |
| 2026-05-07 17:13 | 39.65714 | -105.23455 | 31075 ft | 478 kts | 57° |
| 2026-05-07 17:14 | 39.68735 | -105.15757 | 31073 ft | 478 kts | 57° |
| 2026-05-07 17:14 | 39.71744 | -105.08105 | 31075 ft | 479 kts | 57° |
| 2026-05-07 17:15 | 39.74773 | -105.00365 | 31084 ft | 479 kts | 57° |
| 2026-05-07 17:15 | 39.77765 | -104.92679 | 31076 ft | 479 kts | 57° |
| 2026-05-07 17:16 | 39.80781 | -104.84917 | 31084 ft | 479 kts | 57° |
| 2026-05-07 17:16 | 39.83768 | -104.77208 | 31095 ft | 479 kts | 57° |
| 2026-05-07 17:17 | 39.86757 | -104.69457 | 31097 ft | 479 kts | 57° |
| 2026-05-07 17:17 | 39.89514 | -104.61498 | 31121 ft | 489 kts | 68° |
| 2026-05-07 17:18 | 39.90330 | -104.57172 | 31248 ft | 493 kts | 72° |
| 2026-05-07 17:18 | 39.91078 | -104.52800 | 31366 ft | 494 kts | 72° |
| 2026-05-07 17:18 | 39.91822 | -104.48418 | 31507 ft | 495 kts | 72° |
| 2026-05-07 17:18 | 39.92552 | -104.44091 | 31654 ft | 494 kts | 72° |
| 2026-05-07 17:19 | 39.93284 | -104.39704 | 31813 ft | 494 kts | 72° |
| 2026-05-07 17:19 | 39.94010 | -104.35321 | 31964 ft | 494 kts | 73° |
| 2026-05-07 17:19 | 39.94733 | -104.30945 | 32111 ft | 493 kts | 73° |
| 2026-05-07 17:19 | 39.95455 | -104.26565 | 32254 ft | 493 kts | 73° |
| 2026-05-07 17:20 | 39.96163 | -104.22246 | 32414 ft | 493 kts | 73° |
| 2026-05-07 17:20 | 39.96879 | -104.17873 | 32554 ft | 492 kts | 73° |
| 2026-05-07 17:20 | 39.97595 | -104.13500 | 32700 ft | 492 kts | 73° |
| 2026-05-07 17:20 | 39.98310 | -104.09120 | 32872 ft | 491 kts | 73° |
| 2026-05-07 17:21 | 39.99723 | -104.00444 | 32978 ft | 491 kts | 73° |
| 2026-05-07 17:21 | 40.01144 | -103.91701 | 32979 ft | 491 kts | 73° |
| 2026-05-07 17:22 | 40.02546 | -103.83042 | 32982 ft | 491 kts | 73° |
| 2026-05-07 17:22 | 40.03950 | -103.74305 | 32993 ft | 491 kts | 73° |
| 2026-05-07 17:23 | 40.05338 | -103.65616 | 32987 ft | 491 kts | 74° |
| 2026-05-07 17:23 | 40.06727 | -103.56877 | 32991 ft | 491 kts | 74° |
| 2026-05-07 17:24 | 40.08106 | -103.48121 | 33016 ft | 492 kts | 74° |
| 2026-05-07 17:24 | 40.09481 | -103.39359 | 33035 ft | 492 kts | 74° |
| 2026-05-07 17:25 | 40.10853 | -103.30622 | 33053 ft | 493 kts | 74° |
| 2026-05-07 17:25 | 40.12210 | -103.21883 | 33050 ft | 493 kts | 75° |
| 2026-05-07 17:26 | 40.13567 | -103.13083 | 33047 ft | 494 kts | 75° |
| 2026-05-07 17:26 | 40.14694 | -103.05751 | 33041 ft | 494 kts | 75° |
| 2026-05-07 17:27 | 40.16044 | -102.96970 | 33025 ft | 495 kts | 75° |
| 2026-05-07 17:27 | 40.17403 | -102.88117 | 33001 ft | 496 kts | 75° |
| 2026-05-07 17:28 | 40.18742 | -102.79300 | 32985 ft | 497 kts | 75° |
| 2026-05-07 17:28 | 40.20081 | -102.70404 | 32978 ft | 497 kts | 75° |
| 2026-05-07 17:29 | 40.21411 | -102.61550 | 32977 ft | 498 kts | 75° |
| 2026-05-07 17:29 | 40.22741 | -102.52639 | 32975 ft | 498 kts | 75° |
| 2026-05-07 17:30 | 40.24065 | -102.43727 | 32971 ft | 498 kts | 76° |
| 2026-05-07 17:30 | 40.25373 | -102.34861 | 32966 ft | 499 kts | 76° |
| 2026-05-07 17:31 | 40.26682 | -102.25933 | 32961 ft | 499 kts | 76° |
| 2026-05-07 17:31 | 40.27984 | -102.17003 | 32958 ft | 499 kts | 76° |
| 2026-05-07 17:32 | 40.29273 | -102.08126 | 32952 ft | 499 kts | 76° |
| 2026-05-07 17:32 | 40.30565 | -101.99183 | 32954 ft | 499 kts | 76° |
| 2026-05-07 17:33 | 40.31855 | -101.90240 | 32956 ft | 499 kts | 76° |
| 2026-05-07 17:33 | 40.33123 | -101.81331 | 32966 ft | 499 kts | 76° |
| 2026-05-07 17:34 | 40.34394 | -101.72360 | 32973 ft | 500 kts | 76° |
| 2026-05-07 17:34 | 40.35649 | -101.63430 | 32982 ft | 500 kts | 76° |
| 2026-05-07 17:35 | 40.36909 | -101.54451 | 32981 ft | 500 kts | 76° |
| 2026-05-07 17:35 | 40.38153 | -101.45527 | 32978 ft | 500 kts | 76° |
| 2026-05-07 17:36 | 40.39396 | -101.36515 | 32970 ft | 500 kts | 77° |
| 2026-05-07 17:36 | 40.40626 | -101.27582 | 32962 ft | 500 kts | 77° |
| 2026-05-07 17:37 | 40.41859 | -101.18579 | 32958 ft | 500 kts | 77° |
| 2026-05-07 17:37 | 40.43081 | -101.09623 | 32958 ft | 500 kts | 77° |
| 2026-05-07 17:38 | 40.44304 | -101.00599 | 32959 ft | 501 kts | 77° |
| 2026-05-07 17:38 | 40.45501 | -100.91628 | 32960 ft | 501 kts | 77° |
| 2026-05-07 17:39 | 40.46696 | -100.82614 | 32950 ft | 501 kts | 77° |
| 2026-05-07 17:39 | 40.47873 | -100.73577 | 32965 ft | 501 kts | 77° |
| 2026-05-07 17:40 | 40.49025 | -100.64537 | 32948 ft | 501 kts | 78° |
| 2026-05-07 17:40 | 40.50168 | -100.55547 | 32958 ft | 501 kts | 78° |
| 2026-05-07 17:41 | 40.51330 | -100.46503 | 32946 ft | 501 kts | 78° |
| 2026-05-07 17:41 | 40.52480 | -100.37492 | 32941 ft | 502 kts | 78° |
| 2026-05-07 17:42 | 40.53619 | -100.28435 | 32949 ft | 502 kts | 78° |
| 2026-05-07 17:42 | 40.54751 | -100.19357 | 32943 ft | 502 kts | 78° |
| 2026-05-07 17:43 | 40.55873 | -100.10289 | 32941 ft | 503 kts | 78° |
| 2026-05-07 17:43 | 40.56987 | -100.01261 | 32939 ft | 503 kts | 78° |
| 2026-05-07 17:44 | 40.58105 | -99.92157 | 32954 ft | 504 kts | 78° |
| 2026-05-07 17:44 | 40.59217 | -99.83037 | 32953 ft | 504 kts | 78° |
| 2026-05-07 17:45 | 40.60318 | -99.73964 | 32955 ft | 505 kts | 78° |
| 2026-05-07 17:45 | 40.61415 | -99.64811 | 32955 ft | 505 kts | 78° |
| 2026-05-07 17:46 | 40.62497 | -99.55709 | 32951 ft | 506 kts | 78° |
| 2026-05-07 17:46 | 40.63585 | -99.46540 | 32947 ft | 506 kts | 78° |
| 2026-05-07 17:47 | 40.64664 | -99.37351 | 32947 ft | 507 kts | 78° |
| 2026-05-07 17:47 | 40.65735 | -99.28207 | 32943 ft | 507 kts | 78° |
| 2026-05-07 17:48 | 40.66787 | -99.19065 | 32947 ft | 507 kts | 78° |
| 2026-05-07 17:48 | 40.67847 | -99.09841 | 32950 ft | 508 kts | 78° |
| 2026-05-07 17:49 | 40.68906 | -99.00625 | 32954 ft | 508 kts | 78° |
| 2026-05-07 17:49 | 40.69952 | -98.91448 | 32957 ft | 508 kts | 79° |
| 2026-05-07 17:50 | 40.70980 | -98.82265 | 32952 ft | 509 kts | 79° |
| 2026-05-07 17:50 | 40.72009 | -98.73027 | 32950 ft | 509 kts | 79° |
| 2026-05-07 17:51 | 40.73038 | -98.63770 | 32946 ft | 509 kts | 79° |
| 2026-05-07 17:51 | 40.74054 | -98.54584 | 32952 ft | 510 kts | 79° |
| 2026-05-07 17:52 | 40.75068 | -98.45305 | 32951 ft | 510 kts | 79° |
| 2026-05-07 17:52 | 40.76071 | -98.36038 | 32950 ft | 510 kts | 79° |
| 2026-05-07 17:53 | 40.77067 | -98.26820 | 32951 ft | 510 kts | 79° |
| 2026-05-07 17:53 | 40.78061 | -98.17505 | 32948 ft | 511 kts | 79° |
| 2026-05-07 17:54 | 40.79037 | -98.08264 | 32946 ft | 511 kts | 79° |
| 2026-05-07 17:54 | 40.80015 | -97.98967 | 32950 ft | 511 kts | 79° |
| 2026-05-07 17:55 | 40.80978 | -97.89714 | 32947 ft | 511 kts | 79° |
| 2026-05-07 17:55 | 40.81935 | -97.80400 | 32949 ft | 511 kts | 79° |
| 2026-05-07 17:56 | 40.82894 | -97.71091 | 32951 ft | 511 kts | 79° |
| 2026-05-07 17:56 | 40.83839 | -97.61836 | 32948 ft | 511 kts | 79° |
| 2026-05-07 17:57 | 40.84621 | -97.54080 | 32948 ft | 511 kts | 79° |
| 2026-05-07 17:57 | 40.85704 | -97.43267 | 32946 ft | 511 kts | 79° |
| 2026-05-07 17:58 | 40.86631 | -97.33947 | 32947 ft | 511 kts | 79° |
| 2026-05-07 17:58 | 40.87544 | -97.24675 | 32941 ft | 511 kts | 79° |
| 2026-05-07 17:59 | 40.88456 | -97.15359 | 32945 ft | 511 kts | 79° |
| 2026-05-07 17:59 | 40.89358 | -97.06026 | 32934 ft | 511 kts | 79° |
| 2026-05-07 18:00 | 40.90242 | -96.96762 | 32925 ft | 510 kts | 79° |
| 2026-05-07 18:00 | 40.91134 | -96.87429 | 32923 ft | 510 kts | 79° |
| 2026-05-07 18:01 | 40.92005 | -96.78189 | 32928 ft | 509 kts | 79° |
| 2026-05-07 18:01 | 40.92951 | -96.68893 | 32927 ft | 508 kts | 77° |
| 2026-05-07 18:02 | 40.94949 | -96.55208 | 32931 ft | 506 kts | 75° |
| 2026-05-07 18:03 | 40.96307 | -96.46064 | 32939 ft | 506 kts | 76° |
| 2026-05-07 18:03 | 40.97552 | -96.36939 | 32945 ft | 506 kts | 76° |
| 2026-05-07 18:04 | 40.98763 | -96.27747 | 32947 ft | 506 kts | 77° |
| 2026-05-07 18:04 | 40.99971 | -96.18635 | 32949 ft | 505 kts | 76° |
| 2026-05-07 18:05 | 41.01209 | -96.09466 | 32943 ft | 504 kts | 76° |
| 2026-05-07 18:05 | 41.02437 | -96.00316 | 32946 ft | 504 kts | 76° |
| 2026-05-07 18:06 | 41.03645 | -95.91231 | 32926 ft | 503 kts | 77° |
| 2026-05-07 18:06 | 41.04844 | -95.82080 | 32924 ft | 503 kts | 77° |
| 2026-05-07 18:07 | 41.06030 | -95.72935 | 32929 ft | 503 kts | 77° |
| 2026-05-07 18:07 | 41.07207 | -95.63845 | 32932 ft | 502 kts | 77° |
| 2026-05-07 18:08 | 41.08383 | -95.54702 | 32948 ft | 502 kts | 77° |
| 2026-05-07 18:08 | 41.09550 | -95.45577 | 32943 ft | 502 kts | 77° |
| 2026-05-07 18:09 | 41.10708 | -95.36486 | 32944 ft | 502 kts | 77° |
| 2026-05-07 18:09 | 41.11865 | -95.27331 | 32938 ft | 502 kts | 77° |
| 2026-05-07 18:10 | 41.13014 | -95.18239 | 32933 ft | 502 kts | 77° |
| 2026-05-07 18:10 | 41.14161 | -95.09088 | 32933 ft | 503 kts | 77° |
| 2026-05-07 18:11 | 41.15290 | -94.99924 | 32932 ft | 503 kts | 77° |
| 2026-05-07 18:11 | 41.16406 | -94.90804 | 32924 ft | 503 kts | 77° |
| 2026-05-07 18:12 | 41.17528 | -94.81609 | 32927 ft | 504 kts | 77° |
| 2026-05-07 18:12 | 41.18649 | -94.72408 | 32937 ft | 504 kts | 77° |
| 2026-05-07 18:13 | 41.19765 | -94.63196 | 32942 ft | 505 kts | 77° |
| 2026-05-07 18:13 | 41.20872 | -94.53982 | 32942 ft | 506 kts | 77° |
| 2026-05-07 18:14 | 41.21958 | -94.44786 | 32941 ft | 507 kts | 77° |
| 2026-05-07 18:14 | 41.23043 | -94.35515 | 32939 ft | 507 kts | 77° |
| 2026-05-07 18:15 | 41.24127 | -94.26274 | 32942 ft | 508 kts | 77° |
| 2026-05-07 18:15 | 41.25220 | -94.16961 | 32946 ft | 509 kts | 77° |
| 2026-05-07 18:16 | 41.26297 | -94.07689 | 32944 ft | 510 kts | 78° |
| 2026-05-07 18:16 | 41.27363 | -93.98342 | 32950 ft | 511 kts | 78° |
| 2026-05-07 18:17 | 41.28427 | -93.88977 | 32960 ft | 512 kts | 78° |
| 2026-05-07 18:17 | 41.29485 | -93.79643 | 32957 ft | 513 kts | 78° |
| 2026-05-07 18:18 | 41.30548 | -93.70243 | 32959 ft | 514 kts | 78° |
| 2026-05-07 18:18 | 41.31599 | -93.60868 | 32964 ft | 515 kts | 78° |
| 2026-05-07 18:19 | 41.32634 | -93.51408 | 32966 ft | 516 kts | 78° |
| 2026-05-07 18:19 | 41.33668 | -93.41946 | 32969 ft | 517 kts | 78° |
| 2026-05-07 18:20 | 41.34697 | -93.32505 | 32961 ft | 518 kts | 78° |
| 2026-05-07 18:20 | 41.35726 | -93.22979 | 32956 ft | 519 kts | 78° |
| 2026-05-07 18:21 | 41.36744 | -93.13487 | 32958 ft | 520 kts | 78° |
| 2026-05-07 18:21 | 41.37756 | -93.03944 | 32976 ft | 521 kts | 78° |
| 2026-05-07 18:22 | 41.38748 | -92.94414 | 32979 ft | 522 kts | 78° |
| 2026-05-07 18:22 | 41.39747 | -92.84821 | 32977 ft | 523 kts | 78° |
| 2026-05-07 18:23 | 41.40748 | -92.75201 | 32978 ft | 523 kts | 78° |
| 2026-05-07 18:23 | 41.41734 | -92.65643 | 32978 ft | 524 kts | 78° |
| 2026-05-07 18:24 | 41.42709 | -92.56042 | 32979 ft | 525 kts | 78° |
| 2026-05-07 18:24 | 41.43677 | -92.46388 | 32978 ft | 525 kts | 78° |
| 2026-05-07 18:25 | 41.44483 | -92.38347 | 32964 ft | 526 kts | 78° |
| 2026-05-07 18:25 | 41.45633 | -92.27061 | 32996 ft | 530 kts | 78° |
| 2026-05-07 18:25 | 41.45977 | -92.23800 | 32398 ft | 536 kts | 78° |
| 2026-05-07 18:26 | 41.46626 | -92.17347 | 32343 ft | 524 kts | 78° |
| 2026-05-07 18:26 | 41.47377 | -92.09282 | 32534 ft | 528 kts | 79° |
| 2026-05-07 18:26 | 41.47805 | -92.04600 | 32666 ft | 529 kts | 79° |
| 2026-05-07 18:27 | 41.48255 | -91.99736 | 32801 ft | 531 kts | 79° |
| 2026-05-07 18:27 | 41.48717 | -91.94844 | 32958 ft | 531 kts | 79° |
| 2026-05-07 18:27 | 41.49187 | -91.89958 | 32991 ft | 532 kts | 79° |
| 2026-05-07 18:28 | 41.50134 | -91.80136 | 32993 ft | 534 kts | 79° |
| 2026-05-07 18:28 | 41.51064 | -91.70294 | 32995 ft | 535 kts | 79° |
| 2026-05-07 18:29 | 41.51911 | -91.60484 | 32994 ft | 537 kts | 84° |
| 2026-05-07 18:29 | 41.52139 | -91.50488 | 32993 ft | 539 kts | 85° |
| 2026-05-07 18:30 | 41.52348 | -91.40464 | 32993 ft | 540 kts | 85° |
| 2026-05-07 18:30 | 41.52555 | -91.30498 | 33001 ft | 540 kts | 86° |
| 2026-05-07 18:31 | 41.52751 | -91.20453 | 32989 ft | 541 kts | 86° |
| 2026-05-07 18:31 | 41.52934 | -91.10376 | 32983 ft | 542 kts | 86° |
| 2026-05-07 18:32 | 41.53107 | -91.00358 | 32984 ft | 543 kts | 86° |
| 2026-05-07 18:32 | 41.53282 | -90.90246 | 32985 ft | 544 kts | 86° |
| 2026-05-07 18:33 | 41.53442 | -90.80198 | 32973 ft | 545 kts | 86° |
| 2026-05-07 18:33 | 41.53593 | -90.70111 | 32975 ft | 546 kts | 86° |
| 2026-05-07 18:34 | 41.53736 | -90.59958 | 32979 ft | 547 kts | 86° |
| 2026-05-07 18:34 | 41.53880 | -90.49790 | 32985 ft | 547 kts | 86° |
| 2026-05-07 18:35 | 41.54007 | -90.39650 | 32985 ft | 548 kts | 87° |
| 2026-05-07 18:35 | 41.54118 | -90.29435 | 32983 ft | 549 kts | 87° |
| 2026-05-07 18:36 | 41.54231 | -90.19301 | 32982 ft | 550 kts | 87° |
| 2026-05-07 18:36 | 41.54340 | -90.09057 | 32979 ft | 550 kts | 87° |
| 2026-05-07 18:37 | 41.54433 | -89.98829 | 32982 ft | 550 kts | 87° |
| 2026-05-07 18:37 | 41.54511 | -89.88651 | 32982 ft | 551 kts | 87° |
| 2026-05-07 18:38 | 41.54584 | -89.78411 | 32982 ft | 551 kts | 88° |
| 2026-05-07 18:38 | 41.54650 | -89.68222 | 32981 ft | 551 kts | 88° |
| 2026-05-07 18:39 | 41.54704 | -89.57961 | 32985 ft | 552 kts | 88° |
| 2026-05-07 18:39 | 41.54750 | -89.47762 | 32978 ft | 552 kts | 88° |
| 2026-05-07 18:40 | 41.54793 | -89.37489 | 32996 ft | 552 kts | 88° |
| 2026-05-07 18:40 | 41.54824 | -89.27290 | 33005 ft | 553 kts | 88° |
| 2026-05-07 18:41 | 41.54837 | -89.16989 | 33011 ft | 554 kts | 88° |
| 2026-05-07 18:41 | 41.54840 | -89.06741 | 33011 ft | 554 kts | 88° |
| 2026-05-07 18:42 | 41.54845 | -88.96435 | 33012 ft | 555 kts | 88° |
| 2026-05-07 18:42 | 41.54841 | -88.86109 | 33007 ft | 555 kts | 89° |
| 2026-05-07 18:43 | 41.54822 | -88.75844 | 33001 ft | 556 kts | 89° |
| 2026-05-07 18:43 | 41.54798 | -88.65495 | 32995 ft | 556 kts | 89° |
| 2026-05-07 18:44 | 41.54761 | -88.55214 | 32997 ft | 557 kts | 89° |
| 2026-05-07 18:44 | 41.54712 | -88.44846 | 33010 ft | 557 kts | 89° |
| 2026-05-07 18:45 | 41.54656 | -88.34546 | 33022 ft | 557 kts | 87° |
| 2026-05-07 18:45 | 41.55548 | -88.24303 | 33024 ft | 553 kts | 77° |
| 2026-05-07 18:46 | 41.56771 | -88.14209 | 33023 ft | 553 kts | 77° |
| 2026-05-07 18:46 | 41.57956 | -88.04104 | 33010 ft | 553 kts | 78° |
| 2026-05-07 18:47 | 41.59130 | -87.93944 | 33012 ft | 553 kts | 78° |
| 2026-05-07 18:47 | 41.60312 | -87.83748 | 33013 ft | 554 kts | 78° |
| 2026-05-07 18:48 | 41.61486 | -87.73613 | 33003 ft | 554 kts | 78° |
| 2026-05-07 18:48 | 41.62656 | -87.63469 | 33018 ft | 554 kts | 78° |
| 2026-05-07 18:49 | 41.63813 | -87.53267 | 33009 ft | 554 kts | 78° |
| 2026-05-07 18:49 | 41.64954 | -87.43079 | 33005 ft | 553 kts | 78° |
| 2026-05-07 18:50 | 41.66078 | -87.32944 | 33004 ft | 552 kts | 78° |
| 2026-05-07 18:50 | 41.67200 | -87.22770 | 33011 ft | 552 kts | 78° |
| 2026-05-07 18:51 | 41.68319 | -87.12670 | 33018 ft | 551 kts | 78° |
| 2026-05-07 18:51 | 41.69437 | -87.02513 | 33030 ft | 551 kts | 79° |
| 2026-05-07 18:52 | 41.70519 | -86.92424 | 33025 ft | 550 kts | 79° |
| 2026-05-07 18:52 | 41.71599 | -86.82276 | 33024 ft | 549 kts | 79° |
| 2026-05-07 18:53 | 41.72667 | -86.72193 | 33023 ft | 549 kts | 79° |
| 2026-05-07 18:53 | 41.73736 | -86.62056 | 33028 ft | 549 kts | 79° |
| 2026-05-07 18:54 | 41.74788 | -86.51998 | 33047 ft | 548 kts | 80° |
| 2026-05-07 18:54 | 41.75832 | -86.41855 | 33043 ft | 548 kts | 80° |
| 2026-05-07 18:55 | 41.76742 | -86.31774 | 33048 ft | 548 kts | 87° |
| 2026-05-07 18:55 | 41.76529 | -86.21545 | 33048 ft | 548 kts | 93° |
| 2026-05-07 18:56 | 41.76191 | -86.11402 | 33023 ft | 547 kts | 93° |
| 2026-05-07 18:56 | 41.75845 | -86.01223 | 33021 ft | 547 kts | 93° |
| 2026-05-07 18:57 | 41.75484 | -85.91017 | 33015 ft | 547 kts | 93° |
| 2026-05-07 18:57 | 41.75126 | -85.80887 | 33024 ft | 547 kts | 93° |
| 2026-05-07 18:58 | 41.74755 | -85.70682 | 33016 ft | 547 kts | 94° |
| 2026-05-07 18:58 | 41.74366 | -85.60492 | 33007 ft | 548 kts | 94° |
| 2026-05-07 18:59 | 41.73972 | -85.50360 | 32998 ft | 548 kts | 94° |
| 2026-05-07 18:59 | 41.73571 | -85.40110 | 32994 ft | 549 kts | 94° |
| 2026-05-07 19:00 | 41.73161 | -85.29926 | 32988 ft | 550 kts | 94° |
| 2026-05-07 19:00 | 41.72740 | -85.19723 | 32981 ft | 551 kts | 94° |
| 2026-05-07 19:01 | 41.72303 | -85.09478 | 32988 ft | 552 kts | 95° |
| 2026-05-07 19:01 | 41.71860 | -84.99213 | 32989 ft | 552 kts | 95° |
| 2026-05-07 19:02 | 41.71411 | -84.88930 | 32996 ft | 553 kts | 95° |
| 2026-05-07 19:02 | 41.70952 | -84.78696 | 33003 ft | 553 kts | 95° |
| 2026-05-07 19:03 | 41.70482 | -84.68409 | 33016 ft | 553 kts | 95° |
| 2026-05-07 19:03 | 41.70011 | -84.58186 | 33004 ft | 553 kts | 95° |
| 2026-05-07 19:04 | 41.69523 | -84.47910 | 33008 ft | 553 kts | 95° |
| 2026-05-07 19:04 | 41.69025 | -84.37609 | 32998 ft | 553 kts | 95° |
| 2026-05-07 19:05 | 41.68524 | -84.27409 | 33004 ft | 553 kts | 95° |
| 2026-05-07 19:05 | 41.68013 | -84.17132 | 32992 ft | 553 kts | 96° |
| 2026-05-07 19:06 | 41.67488 | -84.06857 | 32999 ft | 553 kts | 96° |
| 2026-05-07 19:06 | 41.66685 | -83.91486 | 32994 ft | 553 kts | 96° |
| 2026-05-07 19:07 | 41.66134 | -83.81230 | 33002 ft | 553 kts | 96° |
| 2026-05-07 19:07 | 41.65577 | -83.71033 | 32992 ft | 553 kts | 96° |
| 2026-05-07 19:08 | 41.65013 | -83.60749 | 32988 ft | 553 kts | 96° |
| 2026-05-07 19:08 | 41.64440 | -83.50515 | 32995 ft | 553 kts | 96° |
| 2026-05-07 19:09 | 41.63858 | -83.40236 | 32996 ft | 553 kts | 96° |
| 2026-05-07 19:09 | 41.63277 | -83.30015 | 32994 ft | 553 kts | 97° |
| 2026-05-07 19:10 | 41.62671 | -83.19748 | 32991 ft | 553 kts | 97° |
| 2026-05-07 19:10 | 41.62049 | -83.09476 | 32982 ft | 553 kts | 97° |
| 2026-05-07 19:11 | 41.61429 | -82.99285 | 32978 ft | 553 kts | 97° |
| 2026-05-07 19:11 | 41.60802 | -82.89019 | 32980 ft | 553 kts | 97° |
| 2026-05-07 19:12 | 41.60175 | -82.78826 | 32982 ft | 553 kts | 97° |
| 2026-05-07 19:12 | 41.59528 | -82.68574 | 32986 ft | 553 kts | 97° |
| 2026-05-07 19:13 | 41.58873 | -82.58399 | 32985 ft | 552 kts | 97° |
| 2026-05-07 19:13 | 41.58208 | -82.48145 | 32986 ft | 552 kts | 97° |
| 2026-05-07 19:14 | 41.57538 | -82.37967 | 32984 ft | 552 kts | 98° |
| 2026-05-07 19:14 | 41.56854 | -82.27749 | 32993 ft | 551 kts | 98° |
| 2026-05-07 19:15 | 41.56171 | -82.17605 | 32984 ft | 551 kts | 98° |
| 2026-05-07 19:15 | 41.55469 | -82.07385 | 32995 ft | 551 kts | 98° |
| 2026-05-07 19:16 | 41.54765 | -81.97247 | 32974 ft | 551 kts | 98° |
| 2026-05-07 19:16 | 41.54051 | -81.87045 | 32971 ft | 551 kts | 98° |
| 2026-05-07 19:17 | 41.53327 | -81.76912 | 32986 ft | 550 kts | 98° |
| 2026-05-07 19:17 | 41.52589 | -81.66726 | 32983 ft | 550 kts | 98° |
| 2026-05-07 19:18 | 41.51845 | -81.56546 | 32983 ft | 550 kts | 98° |
| 2026-05-07 19:18 | 41.51098 | -81.46439 | 32983 ft | 550 kts | 98° |
| 2026-05-07 19:19 | 41.50330 | -81.36266 | 32981 ft | 550 kts | 98° |
| 2026-05-07 19:19 | 41.49566 | -81.26150 | 32978 ft | 550 kts | 98° |
| 2026-05-07 19:20 | 41.48796 | -81.15994 | 32974 ft | 549 kts | 99° |
| 2026-05-07 19:20 | 41.48011 | -81.05889 | 32963 ft | 549 kts | 99° |
| 2026-05-07 19:21 | 41.47214 | -80.95795 | 32951 ft | 549 kts | 99° |
| 2026-05-07 19:21 | 41.46406 | -80.85648 | 32947 ft | 549 kts | 99° |
| 2026-05-07 19:22 | 41.45601 | -80.75582 | 32939 ft | 548 kts | 99° |
| 2026-05-07 19:22 | 41.44790 | -80.65470 | 32944 ft | 548 kts | 99° |
| 2026-05-07 19:23 | 41.43961 | -80.55386 | 32943 ft | 547 kts | 99° |
| 2026-05-07 19:23 | 41.43121 | -80.45335 | 32949 ft | 547 kts | 99° |
| 2026-05-07 19:24 | 41.42279 | -80.35238 | 32948 ft | 546 kts | 99° |
| 2026-05-07 19:24 | 41.41442 | -80.25241 | 32948 ft | 546 kts | 99° |
| 2026-05-07 19:25 | 41.40722 | -80.16863 | 32948 ft | 545 kts | 100° |
| 2026-05-07 19:25 | 41.39705 | -80.05175 | 32943 ft | 545 kts | 100° |
| 2026-05-07 19:26 | 41.38832 | -79.95197 | 32943 ft | 544 kts | 100° |
| 2026-05-07 19:26 | 41.37963 | -79.85215 | 32939 ft | 544 kts | 100° |
| 2026-05-07 19:27 | 41.37232 | -79.76892 | 32935 ft | 543 kts | 100° |
| 2026-05-07 19:27 | 41.36181 | -79.65267 | 32935 ft | 542 kts | 101° |
| 2026-05-07 19:28 | 41.35424 | -79.56969 | 32939 ft | 542 kts | 101° |
| 2026-05-07 19:28 | 41.34511 | -79.46992 | 32932 ft | 542 kts | 101° |
| 2026-05-07 19:29 | 41.33594 | -79.37041 | 32930 ft | 541 kts | 101° |
| 2026-05-07 19:29 | 41.32667 | -79.27168 | 32921 ft | 541 kts | 101° |
| 2026-05-07 19:30 | 41.31726 | -79.17222 | 32914 ft | 540 kts | 101° |
| 2026-05-07 19:30 | 41.30782 | -79.07295 | 32909 ft | 540 kts | 101° |
| 2026-05-07 19:31 | 41.29832 | -78.97436 | 32908 ft | 540 kts | 101° |
| 2026-05-07 19:31 | 41.28866 | -78.87509 | 32909 ft | 540 kts | 102° |
| 2026-05-07 19:32 | 41.27903 | -78.77679 | 32907 ft | 539 kts | 102° |
| 2026-05-07 19:32 | 41.26935 | -78.67765 | 32903 ft | 539 kts | 102° |
| 2026-05-07 19:33 | 41.25962 | -78.57928 | 32904 ft | 539 kts | 102° |
| 2026-05-07 19:33 | 41.24967 | -78.48029 | 32912 ft | 539 kts | 102° |
| 2026-05-07 19:34 | 41.23967 | -78.38190 | 32898 ft | 539 kts | 102° |
| 2026-05-07 19:34 | 41.22949 | -78.28311 | 32896 ft | 539 kts | 102° |
| 2026-05-07 19:35 | 41.21929 | -78.18423 | 32897 ft | 539 kts | 102° |
| 2026-05-07 19:35 | 41.20867 | -78.08553 | 32894 ft | 539 kts | 104° |
| 2026-05-07 19:36 | 41.19642 | -77.98810 | 32890 ft | 538 kts | 105° |
| 2026-05-07 19:36 | 41.18350 | -77.88988 | 32884 ft | 539 kts | 105° |
| 2026-05-07 19:37 | 41.17095 | -77.79185 | 32882 ft | 539 kts | 104° |
| 2026-05-07 19:37 | 41.15876 | -77.69378 | 32871 ft | 540 kts | 104° |
| 2026-05-07 19:38 | 41.14635 | -77.59549 | 32873 ft | 539 kts | 105° |
| 2026-05-07 19:38 | 41.13377 | -77.49784 | 32871 ft | 539 kts | 105° |
| 2026-05-07 19:39 | 41.12106 | -77.39962 | 32874 ft | 539 kts | 105° |
| 2026-05-07 19:39 | 41.10827 | -77.30141 | 32871 ft | 539 kts | 105° |
| 2026-05-07 19:40 | 41.09550 | -77.20386 | 32868 ft | 539 kts | 105° |
| 2026-05-07 19:40 | 41.08260 | -77.10580 | 32866 ft | 539 kts | 105° |
| 2026-05-07 19:41 | 41.06964 | -77.00835 | 32867 ft | 539 kts | 105° |
| 2026-05-07 19:41 | 41.05653 | -76.91019 | 32863 ft | 539 kts | 105° |
| 2026-05-07 19:42 | 41.04344 | -76.81296 | 32869 ft | 539 kts | 106° |
| 2026-05-07 19:42 | 41.03013 | -76.71496 | 32880 ft | 539 kts | 106° |
| 2026-05-07 19:43 | 41.01236 | -76.61918 | 32877 ft | 531 kts | 115° |
| 2026-05-07 19:43 | 40.99003 | -76.52645 | 32872 ft | 531 kts | 115° |
| 2026-05-07 19:44 | 40.96760 | -76.43301 | 32876 ft | 532 kts | 115° |
| 2026-05-07 19:44 | 40.94521 | -76.33996 | 32874 ft | 532 kts | 115° |
| 2026-05-07 19:45 | 40.92267 | -76.24726 | 32870 ft | 532 kts | 116° |
| 2026-05-07 19:45 | 40.89980 | -76.15380 | 32637 ft | 533 kts | 116° |
| 2026-05-07 19:46 | 40.88834 | -76.10705 | 32375 ft | 534 kts | 116° |
| 2026-05-07 19:46 | 40.87705 | -76.06095 | 32119 ft | 534 kts | 116° |
| 2026-05-07 19:46 | 40.86560 | -76.01426 | 31862 ft | 534 kts | 116° |
| 2026-05-07 19:46 | 40.85408 | -75.96743 | 31092 ft | 537 kts | 116° |
| 2026-05-07 19:47 | 40.84231 | -75.91990 | 29859 ft | 548 kts | 116° |
| 2026-05-07 19:47 | 40.83051 | -75.87224 | 28571 ft | 541 kts | 116° |
| 2026-05-07 19:47 | 40.81915 | -75.82570 | 27735 ft | 521 kts | 116° |
| 2026-05-07 19:47 | 40.80844 | -75.78146 | 27114 ft | 505 kts | 116° |
| 2026-05-07 19:48 | 40.79760 | -75.73741 | 26429 ft | 503 kts | 116° |
| 2026-05-07 19:48 | 40.78673 | -75.69385 | 25873 ft | 498 kts | 116° |
| 2026-05-07 19:48 | 40.77586 | -75.65060 | 25283 ft | 494 kts | 116° |
| 2026-05-07 19:48 | 40.76519 | -75.60821 | 24715 ft | 490 kts | 116° |
| 2026-05-07 19:49 | 40.75450 | -75.56565 | 24143 ft | 487 kts | 116° |
| 2026-05-07 19:49 | 40.74388 | -75.52336 | 23575 ft | 483 kts | 115° |
| 2026-05-07 19:49 | 40.73331 | -75.48133 | 22955 ft | 479 kts | 115° |
| 2026-05-07 19:49 | 40.72316 | -75.44018 | 22435 ft | 473 kts | 114° |
| 2026-05-07 19:50 | 40.71413 | -75.39926 | 21937 ft | 467 kts | 112° |
| 2026-05-07 19:50 | 40.70594 | -75.35813 | 21423 ft | 461 kts | 111° |
| 2026-05-07 19:50 | 40.69834 | -75.31746 | 20944 ft | 453 kts | 110° |
| 2026-05-07 19:50 | 40.69095 | -75.27729 | 20474 ft | 446 kts | 110° |
| 2026-05-07 19:51 | 40.68356 | -75.23787 | 20026 ft | 440 kts | 111° |
| 2026-05-07 19:51 | 40.67582 | -75.19948 | 19584 ft | 433 kts | 115° |
| 2026-05-07 19:51 | 40.66460 | -75.16318 | 19177 ft | 421 kts | 125° |
| 2026-05-07 19:51 | 40.64981 | -75.13037 | 18763 ft | 409 kts | 134° |
| 2026-05-07 19:52 | 40.63240 | -75.10150 | 18366 ft | 397 kts | 142° |
| 2026-05-07 19:52 | 40.61363 | -75.07487 | 17931 ft | 394 kts | 142° |
| 2026-05-07 19:52 | 40.59533 | -75.04885 | 17645 ft | 391 kts | 142° |
| 2026-05-07 19:52 | 40.57773 | -75.02118 | 17230 ft | 398 kts | 134° |
| 2026-05-07 19:53 | 40.56343 | -74.98973 | 16808 ft | 404 kts | 123° |
| 2026-05-07 19:53 | 40.55254 | -74.95538 | 16347 ft | 406 kts | 118° |
| 2026-05-07 19:53 | 40.54234 | -74.92087 | 15903 ft | 403 kts | 118° |
| 2026-05-07 19:53 | 40.53210 | -74.88658 | 15431 ft | 401 kts | 118° |
| 2026-05-07 19:54 | 40.52201 | -74.85300 | 14977 ft | 398 kts | 118° |
| 2026-05-07 19:54 | 40.51185 | -74.81929 | 14518 ft | 395 kts | 118° |
| 2026-05-07 19:54 | 40.50175 | -74.78583 | 14044 ft | 392 kts | 118° |
| 2026-05-07 19:54 | 40.49183 | -74.75288 | 13606 ft | 391 kts | 118° |
| 2026-05-07 19:55 | 40.48187 | -74.71973 | 13100 ft | 388 kts | 118° |
| 2026-05-07 19:55 | 40.47199 | -74.68678 | 12641 ft | 383 kts | 117° |
| 2026-05-07 19:55 | 40.46234 | -74.65473 | 12165 ft | 380 kts | 117° |
| 2026-05-07 19:55 | 40.45257 | -74.62243 | 11708 ft | 377 kts | 116° |
| 2026-05-07 19:56 | 40.44317 | -74.59038 | 11242 ft | 377 kts | 111° |
| 2026-05-07 19:56 | 40.43757 | -74.55672 | 10807 ft | 379 kts | 97° |
| 2026-05-07 19:56 | 40.43729 | -74.52255 | 10641 ft | 367 kts | 84° |
| 2026-05-07 19:56 | 40.44183 | -74.49013 | 10512 ft | 353 kts | 72° |
| 2026-05-07 19:57 | 40.44957 | -74.46059 | 10332 ft | 343 kts | 68° |
| 2026-05-07 19:57 | 40.45755 | -74.43117 | 10029 ft | 338 kts | 68° |
| 2026-05-07 19:57 | 40.46531 | -74.40232 | 9853 ft | 334 kts | 68° |
| 2026-05-07 19:57 | 40.47306 | -74.37348 | 9737 ft | 334 kts | 68° |
| 2026-05-07 19:58 | 40.48079 | -74.34461 | 9338 ft | 332 kts | 68° |
| 2026-05-07 19:58 | 40.48826 | -74.31657 | 9000 ft | 327 kts | 68° |
| 2026-05-07 19:58 | 40.49573 | -74.28854 | 8656 ft | 322 kts | 68° |
| 2026-05-07 19:58 | 40.50312 | -74.26090 | 8309 ft | 318 kts | 68° |
| 2026-05-07 19:59 | 40.51032 | -74.23389 | 7996 ft | 311 kts | 68° |
| 2026-05-07 19:59 | 40.51733 | -74.20756 | 7528 ft | 298 kts | 68° |
| 2026-05-07 19:59 | 40.52415 | -74.18197 | 7039 ft | 293 kts | 68° |
| 2026-05-07 19:59 | 40.53064 | -74.15760 | 6556 ft | 285 kts | 69° |
| 2026-05-07 20:00 | 40.53708 | -74.13343 | 6047 ft | 277 kts | 69° |
| 2026-05-07 20:00 | 40.54335 | -74.10991 | 5522 ft | 273 kts | 69° |
| 2026-05-07 20:00 | 40.54985 | -74.08651 | 5046 ft | 272 kts | 63° |
| 2026-05-07 20:00 | 40.55957 | -74.06540 | 4643 ft | 267 kts | 48° |
| 2026-05-07 20:01 | 40.57276 | -74.04845 | 4260 ft | 263 kts | 34° |
| 2026-05-07 20:01 | 40.58781 | -74.03550 | 3894 ft | 261 kts | 30° |
| 2026-05-07 20:01 | 40.60310 | -74.02262 | 3515 ft | 260 kts | 31° |
| 2026-05-07 20:01 | 40.61825 | -74.00970 | 3284 ft | 255 kts | 31° |
| 2026-05-07 20:02 | 40.63281 | -73.99732 | 3172 ft | 244 kts | 30° |
| 2026-05-07 20:02 | 40.64677 | -73.98556 | 3047 ft | 235 kts | 30° |
| 2026-05-07 20:02 | 40.66052 | -73.97408 | 2967 ft | 233 kts | 30° |
| 2026-05-07 20:02 | 40.67409 | -73.96245 | 2802 ft | 232 kts | 33° |
| 2026-05-07 20:03 | 40.68713 | -73.94922 | 2755 ft | 240 kts | 39° |
| 2026-05-07 20:03 | 40.69913 | -73.93325 | 2596 ft | 246 kts | 49° |
| 2026-05-07 20:03 | 40.70893 | -73.91617 | 2402 ft | 220 kts | 51° |
| 2026-05-07 20:03 | 40.71710 | -73.90048 | 2145 ft | 197 kts | 57° |
| 2026-05-07 20:04 | 40.72305 | -73.88553 | 1985 ft | 175 kts | 61° |
| 2026-05-07 20:04 | 40.72731 | -73.87073 | 1630 ft | 170 kts | 71° |
| 2026-05-07 20:04 | 40.73000 | -73.85610 | 1342 ft | 163 kts | 74° |
| 2026-05-07 20:04 | 40.73494 | -73.84335 | 1062 ft | 153 kts | 42° |
| 2026-05-07 20:05 | 40.74372 | -73.83624 | 846 ft | 148 kts | 13° |
| 2026-05-07 20:05 | 40.75362 | -73.83619 | 695 ft | 144 kts | 344° |
| 2026-05-07 20:05 | 40.76267 | -73.84156 | 454 ft | 142 kts | 322° |
| 2026-05-07 20:05 | 40.76922 | -73.85157 | 178 ft | 145 kts | 308° |
| 2026-05-07 20:06 | 40.77460 | -73.86255 | 23 ft | 136 kts | 306° |
| 2026-05-07 20:06 | 40.77866 | -73.87087 | 15 ft | 69 kts | 302° |
| 2026-05-07 20:06 | 40.77971 | -73.87350 | 15 ft | 12 kts | 272° |
| 2026-05-07 20:06 | 40.77935 | -73.87422 | 15 ft | 6 kts | 208° |
| 2026-05-07 20:07 | 40.77909 | -73.87412 | 15 ft | 4 kts | 142° |
| 2026-05-07 20:07 | 40.77894 | -73.87386 | 14 ft | 4 kts | 126° |
| 2026-05-07 20:07 | 40.77879 | -73.87358 | 14 ft | 4 kts | 123° |
| 2026-05-07 20:07 | 40.77863 | -73.87323 | 16 ft | 8 kts | 122° |
| 2026-05-07 20:08 | 40.77825 | -73.87244 | 13 ft | 10 kts | 122° |
| 2026-05-07 20:08 | 40.77791 | -73.87170 | 13 ft | 9 kts | 121° |
| 2026-05-07 20:08 | 40.77762 | -73.87108 | 15 ft | 7 kts | 121° |
| 2026-05-07 20:08 | 40.77738 | -73.87056 | 13 ft | 7 kts | 122° |
| 2026-05-07 20:09 | 40.77694 | -73.86991 | 13 ft | 10 kts | 158° |
| 2026-05-07 20:09 | 40.77634 | -73.86990 | 14 ft | 7 kts | 185° |
| 2026-05-07 20:09 | 40.77613 | -73.86997 | 16 ft | 1 kts | 198° |
| 2026-05-07 20:10 | 40.77571 | -73.87026 | 19 ft | 9 kts | 210° |
| 2026-05-07 20:10 | 40.77503 | -73.87080 | 19 ft | 11 kts | 211° |
| 2026-05-07 20:10 | 40.77444 | -73.87129 | 20 ft | 9 kts | 213° |
| 2026-05-07 20:10 | 40.77419 | -73.87191 | 20 ft | 7 kts | 269° |
| 2026-05-07 20:11 | 40.77422 | -73.87223 | 20 ft | 2 kts | 278° |
| 2026-05-07 20:11 | 40.77429 | -73.87237 | 20 ft | 2 kts | 318° |
| 2026-05-07 20:11 | 40.77446 | -73.87239 | 20 ft | 2 kts | 9° |
| 2026-05-07 20:11 | 40.77461 | -73.87233 | 20 ft | 2 kts | 18° |
| 2026-05-07 20:12 | 40.77471 | -73.87228 | 20 ft | 1 kts | 20° |
| 2026-05-07 20:12 | 40.77474 | -73.87227 | 20 ft | 0 kts | 20° |
| 2026-05-07 20:12 | 40.77478 | -73.87225 | 20 ft | 1 kts | 21° |
| 2026-05-07 20:12 | 40.77481 | -73.87223 | 20 ft | 0 kts | 21° |
| 2026-05-07 20:13 | 40.77483 | -73.87223 | 20 ft | 0 kts | 21° |